Fogo, Canada
Current Conditions -  °F | °C
As of 5:00 AM on Friday 28 Nov 2014 (Local Time) from CYQX Reporting Station
Light Snow Light Snow  
Wind Chill: 17°   Ceiling: 500
Heat Index: 28°   Visibility: 2.5mi
Dew Point: 28°   Wind: 15mph
Humidity: 100%   Direction: 330°NNW
Pressure: 29.61"   Gusts: 26mph
Location:  49.7°N, 54.28°W
Report Text: CYQX 280800Z 33013G23KT 2 1/2SM -FZDZ -SN DRSN BKN005 OVC020 M02/M02 A2961 RMK SN3SF4SC1 SLP034
Loading
Personal Weather Stations






























Interactive Weather Map New forecast layout! Learn more

10-Day Weather Forecast

Advertisements
Track Severe Weather on mobile